Garoga, New York
Current Conditions -  °F | °C
As of 5:55 AM on Sunday 23 Nov 2014 (Local Time) from KNY0 Reporting Station
Overcast Overcast  
Wind Chill: 31°   Ceiling: 2300
Heat Index: 35°   Visibility: 7mi
Dew Point: 33°   Wind: 5mph
Humidity: 93%   Direction: 220°SW
Pressure: 30.05"   Gusts: NA
Location:  43.0176°N, 74.3982°W
Report Text: KNY0 231055Z AUTO 22004KT 7SM OVC023 02/01 A3005 RMK AO2 T00180008
Loading
Personal Weather Stations






























Interactive Weather Map New forecast layout! Learn more

10-Day Weather Forecast

Advertisements
Track Severe Weather on mobile